Time;durP1;ratioP1;P1;durP2;ratioP2;P2;SDS_P1;SDS_P2;PMS_P1;PMS_P2;Temp;Humidity;BMP_temperature;BMP_pressure;BME280_temperature;BME280_humidity;BME280_pressure;Samples;Min_cycle;Max_cycle;Signal;HPM_P1;HPM_P2
2022/01/09 00:01:21;;;;;;;0.20;0.10;;;;;;;5.26;100.00;97954.22;4994425;28;21005;-53
2022/01/09 00:03:48;;;;;;;0.20;0.10;;;;;;;5.05;100.00;97956.03;4994946;28;20480;-52
2022/01/09 00:06:15;;;;;;;0.20;0.17;;;;;;;5.27;100.00;97949.81;4989742;28;20455;-52
2022/01/09 00:08:43;;;;;;;0.20;0.10;;;;;;;5.29;100.00;97942.69;4976969;28;20887;-52
2022/01/09 00:11:15;;;;;;;0.20;0.10;;;;;;;5.08;100.00;97946.31;4992692;28;20500;-52
2022/01/09 00:13:42;;;;;;;0.20;0.10;;;;;;;5.18;100.00;97942.31;4994564;28;20456;-52
2022/01/09 00:16:08;;;;;;;0.20;0.10;;;;;;;5.11;100.00;97928.59;4983956;28;20535;-53
2022/01/09 00:18:35;;;;;;;0.20;0.17;;;;;;;5.21;100.00;97931.66;5000215;28;20457;-52
2022/01/09 00:21:05;;;;;;;0.20;0.10;;;;;;;5.27;100.00;97934.00;4982971;28;20472;-52
2022/01/09 00:23:33;;;;;;;0.20;0.10;;;;;;;5.11;100.00;97917.19;4994595;28;20453;-52
2022/01/09 00:26:01;;;;;;;2.23;2.03;;;;;;;5.29;100.00;97914.56;4994081;28;20457;-53
2022/01/09 00:28:27;;;;;;;0.20;0.10;;;;;;;5.18;100.00;97914.19;4993932;28;20481;-52
2022/01/09 00:30:54;;;;;;;0.20;0.10;;;;;;;5.23;100.00;97901.69;4994205;28;20504;-52
2022/01/09 00:33:22;;;;;;;0.20;0.10;;;;;;;5.28;100.00;97906.75;4992102;28;20449;-52
2022/01/09 00:35:50;;;;;;;0.20;0.10;;;;;;;5.28;100.00;97897.06;4992145;28;20461;-52
2022/01/09 00:38:17;;;;;;;0.20;0.10;;;;;;;5.26;100.00;97900.69;4993963;28;20450;-53
2022/01/09 00:40:44;;;;;;;0.20;0.10;;;;;;;5.24;100.00;97894.66;4984906;28;20451;-52
2022/01/09 00:43:11;;;;;;;0.20;0.13;;;;;;;5.22;100.00;97901.78;4987001;28;20477;-52
2022/01/09 00:45:40;;;;;;;0.20;0.10;;;;;;;5.20;100.00;97890.44;4984086;28;20449;-52
2022/01/09 00:48:08;;;;;;;0.20;0.10;;;;;;;5.22;100.00;97888.59;4993890;28;20450;-52
2022/01/09 00:50:36;;;;;;;0.20;0.10;;;;;;;5.31;100.00;97888.16;4983433;28;20506;-52
2022/01/09 00:53:04;;;;;;;0.30;0.30;;;;;;;5.32;100.00;97884.59;4991585;28;20986;-52
2022/01/09 00:55:31;;;;;;;0.20;0.10;;;;;;;5.27;100.00;97876.91;4985505;28;20453;-52
2022/01/09 00:57:58;;;;;;;0.20;0.10;;;;;;;5.27;100.00;97873.44;4985188;28;21052;-52
2022/01/09 01:00:25;;;;;;;0.20;0.10;;;;;;;5.33;100.00;97859.97;4993822;28;20446;-52
2022/01/09 01:02:51;;;;;;;0.20;0.10;;;;;;;5.25;100.00;97862.13;4987955;28;20991;-52
2022/01/09 01:05:19;;;;;;;0.20;0.10;;;;;;;5.35;100.00;97851.09;4986428;28;20820;-52
2022/01/09 01:07:45;;;;;;;0.20;0.10;;;;;;;5.33;100.00;97852.91;4993515;28;20507;-52
2022/01/09 01:10:13;;;;;;;0.20;0.10;;;;;;;5.41;100.00;97851.72;4982954;28;20939;-52
2022/01/09 01:12:40;;;;;;;0.20;0.10;;;;;;;5.44;100.00;97849.78;4992944;28;20539;-52
2022/01/09 01:15:07;;;;;;;0.20;0.10;;;;;;;5.47;100.00;97849.63;4993617;28;20507;-52
2022/01/09 01:17:36;;;;;;;0.20;0.10;;;;;;;5.40;100.00;97839.47;4993128;28;20490;-52
2022/01/09 01:20:04;;;;;;;0.20;0.10;;;;;;;5.49;100.00;97841.69;4986165;28;20544;-52
2022/01/09 01:22:31;;;;;;;0.20;0.10;;;;;;;5.42;100.00;97832.34;4993110;28;20520;-52
2022/01/09 01:24:59;;;;;;;0.20;0.10;;;;;;;5.39;100.00;97833.34;4993126;28;20969;-52
2022/01/09 01:27:26;;;;;;;0.20;0.20;;;;;;;5.42;100.00;97837.63;4979646;28;20453;-52
2022/01/09 01:29:54;;;;;;;0.20;0.10;;;;;;;5.40;100.00;97826.31;4993112;28;20453;-52
2022/01/09 01:32:22;;;;;;;0.20;0.10;;;;;;;5.43;100.00;97828.78;4993037;28;20536;-52
2022/01/09 01:34:49;;;;;;;0.20;0.10;;;;;;;5.48;100.00;97826.78;4992713;28;20457;-52
2022/01/09 01:37:16;;;;;;;0.20;0.10;;;;;;;5.45;100.00;97825.16;4992979;28;20521;-53
2022/01/09 01:39:42;;;;;;;0.20;0.10;;;;;;;5.44;100.00;97820.81;4980142;28;20458;-53
2022/01/09 01:42:09;;;;;;;0.20;0.10;;;;;;;5.48;100.00;97817.13;4993293;28;20480;-52
2022/01/09 01:44:44;;;;;;;0.20;0.10;;;;;;;5.45;100.00;97817.25;4992590;28;20457;-52
2022/01/09 01:47:15;;;;;;;0.20;0.10;;;;;;;5.43;100.00;97819.09;4993072;28;20451;-52
2022/01/09 01:49:42;;;;;;;0.20;0.10;;;;;;;5.40;100.00;97819.25;4979908;28;21048;-52
2022/01/09 01:52:09;;;;;;;0.20;0.10;;;;;;;5.47;100.00;97814.53;4992785;28;20567;-52
2022/01/09 01:54:35;;;;;;;0.20;0.13;;;;;;;5.42;100.00;97817.41;4992954;28;20499;-51
2022/01/09 01:57:03;;;;;;;0.20;0.10;;;;;;;5.44;100.00;97814.69;4988164;28;20492;-52
2022/01/09 01:59:30;;;;;;;0.20;0.10;;;;;;;5.50;100.00;97806.50;4992946;28;20456;-51
2022/01/09 02:01:58;;;;;;;0.20;0.10;;;;;;;5.48;100.00;97813.59;4992554;28;20532;-52
2022/01/09 02:04:25;;;;;;;0.20;0.10;;;;;;;5.57;100.00;97821.06;4992701;28;20461;-52
2022/01/09 02:06:52;;;;;;;0.20;0.20;;;;;;;5.58;100.00;97812.25;4992590;28;20457;-53
2022/01/09 02:09:18;;;;;;;0.20;0.10;;;;;;;5.55;100.00;97815.88;4979664;28;20484;-52
2022/01/09 02:11:46;;;;;;;0.20;0.10;;;;;;;5.58;100.00;97813.09;4992730;28;20536;-53
2022/01/09 02:14:12;;;;;;;0.20;0.10;;;;;;;5.63;100.00;97818.16;4992374;28;20453;-52
2022/01/09 02:16:44;;;;;;;0.20;0.13;;;;;;;5.67;100.00;97817.09;4999114;28;20862;-52
2022/01/09 02:19:14;;;;;;;0.20;0.10;;;;;;;5.65;100.00;97816.31;4989120;28;20960;-52
2022/01/09 02:21:44;;;;;;;0.20;0.10;;;;;;;5.63;100.00;97819.03;4985277;28;20473;-52
2022/01/09 02:24:14;;;;;;;0.20;0.10;;;;;;;5.64;100.00;97828.63;4982412;28;21108;-52
2022/01/09 02:26:41;;;;;;;0.20;0.10;;;;;;;5.68;100.00;97817.94;4979544;28;20454;-55
2022/01/09 02:29:08;;;;;;;0.20;0.10;;;;;;;5.68;100.00;97829.31;4992603;28;20488;-52
2022/01/09 02:31:35;;;;;;;0.20;0.10;;;;;;;5.68;100.00;97831.09;4992045;28;20532;-52
2022/01/09 02:34:02;;;;;;;0.20;0.10;;;;;;;5.73;100.00;97837.00;4981598;28;20500;-52
2022/01/09 02:36:29;;;;;;;0.20;0.10;;;;;;;5.69;100.00;97838.94;4995969;28;20480;-54
2022/01/09 02:38:55;;;;;;;0.20;0.10;;;;;;;5.68;100.00;97847.78;4984767;28;20458;-55
2022/01/09 02:41:22;;;;;;;0.20;0.10;;;;;;;5.61;100.00;97841.94;4995710;28;20516;-55
2022/01/09 02:43:48;;;;;;;0.20;0.10;;;;;;;5.64;100.00;97854.13;4996208;28;20448;-55
2022/01/09 02:46:29;;;;;;;0.20;0.10;;;;;;;5.58;100.00;97857.88;4983357;28;20826;-56
2022/01/09 02:48:57;;;;;;;0.20;0.20;;;;;;;5.65;100.00;97855.84;4996236;28;20531;-55
2022/01/09 02:51:25;;;;;;;0.20;0.10;;;;;;;5.59;100.00;97866.66;4993658;28;20474;-55
2022/01/09 02:53:57;;;;;;;0.20;0.10;;;;;;;5.52;100.00;97865.25;4995936;28;21013;-55
2022/01/09 02:56:24;;;;;;;0.20;0.10;;;;;;;5.52;100.00;97870.50;4992621;28;20446;-55
2022/01/09 02:58:50;;;;;;;0.20;0.10;;;;;;;5.46;100.00;97884.81;4985069;28;20482;-55
2022/01/09 03:01:17;;;;;;;0.20;0.10;;;;;;;5.55;100.00;97878.28;4994088;28;20480;-55
2022/01/09 03:03:44;;;;;;;0.20;0.10;;;;;;;5.57;100.00;97886.94;4996006;28;20969;-55
2022/01/09 03:06:11;;;;;;;0.20;0.10;;;;;;;5.58;100.00;97900.03;4982860;28;20453;-55
2022/01/09 03:08:38;;;;;;;0.20;0.13;;;;;;;5.59;100.00;97899.13;4995395;28;20449;-56
2022/01/09 03:11:05;;;;;;;0.20;0.20;;;;;;;5.76;100.00;97913.31;4995405;28;20532;-55
2022/01/09 03:13:32;;;;;;;0.20;0.10;;;;;;;5.82;100.00;97915.63;4995677;28;20512;-55
2022/01/09 03:15:59;;;;;;;0.20;0.10;;;;;;;5.70;100.00;97921.47;4983488;28;20449;-55
2022/01/09 03:18:26;;;;;;;0.20;0.20;;;;;;;5.74;100.00;97933.59;5003647;28;20947;-55
2022/01/09 03:20:52;;;;;;;0.20;0.20;;;;;;;5.63;100.00;97934.97;4982248;28;20876;-54
2022/01/09 03:23:19;;;;;;;0.20;0.10;;;;;;;5.66;100.00;97939.22;4985836;28;20564;-55
2022/01/09 03:25:46;;;;;;;0.20;0.10;;;;;;;5.70;100.00;97947.84;4990285;28;20454;-55
2022/01/09 03:28:12;;;;;;;0.20;0.10;;;;;;;5.68;100.00;97962.88;4986458;28;20487;-55
2022/01/09 03:30:39;;;;;;;0.20;0.10;;;;;;;5.62;100.00;97967.50;4982189;28;20946;-55
2022/01/09 03:33:06;;;;;;;0.20;0.10;;;;;;;5.68;100.00;97976.06;4995368;28;20585;-56
2022/01/09 03:35:32;;;;;;;0.20;0.10;;;;;;;5.72;100.00;97982.88;4989663;28;20512;-54
2022/01/09 03:37:59;;;;;;;0.20;0.10;;;;;;;5.57;100.00;97993.19;4987437;28;20486;-55
2022/01/09 03:40:28;;;;;;;0.20;0.10;;;;;;;5.53;100.00;97996.06;4995421;28;20453;-54
2022/01/09 03:42:56;;;;;;;0.20;0.10;;;;;;;5.57;100.00;98005.53;4982837;28;20848;-54
2022/01/09 03:45:25;;;;;;;0.20;0.20;;;;;;;5.58;100.00;97999.31;4993780;28;20457;-55
2022/01/09 03:47:53;;;;;;;0.20;0.10;;;;;;;5.57;100.00;98010.78;4994724;28;20947;-55
2022/01/09 03:50:20;;;;;;;0.20;0.10;;;;;;;5.54;100.00;98014.44;4995106;28;20824;-55
2022/01/09 03:52:49;;;;;;;0.20;0.10;;;;;;;5.51;100.00;98021.63;4994423;28;20477;-55
2022/01/09 03:55:19;;;;;;;0.20;0.10;;;;;;;5.57;100.00;98031.88;4994969;28;20857;-55
2022/01/09 03:57:47;;;;;;;0.20;0.10;;;;;;;5.48;100.00;98037.53;4981802;28;20849;-55
2022/01/09 04:00:17;;;;;;;0.20;0.10;;;;;;;5.52;100.00;98047.91;4994983;28;20456;-55
2022/01/09 04:02:45;;;;;;;0.20;0.10;;;;;;;5.51;100.00;98046.19;4992500;28;20975;-55
2022/01/09 04:05:12;;;;;;;0.20;0.10;;;;;;;5.53;100.00;98056.66;4984321;28;20458;-55
2022/01/09 04:07:39;;;;;;;0.20;0.10;;;;;;;5.59;100.00;98072.19;4992150;28;20446;-55
2022/01/09 04:10:06;;;;;;;0.20;0.10;;;;;;;5.63;100.00;98073.78;4987867;28;20493;-56
2022/01/09 04:12:36;;;;;;;0.20;0.10;;;;;;;5.50;100.00;98088.41;4990446;28;20471;-55
2022/01/09 04:15:07;;;;;;;0.20;0.10;;;;;;;5.51;100.00;98085.72;4986144;28;20454;-55
2022/01/09 04:17:47;;;;;;;0.20;0.10;;;;;;;5.54;100.00;98092.63;5003491;28;20528;-54
2022/01/09 04:20:15;;;;;;;0.20;0.10;;;;;;;5.53;100.00;98110.19;4981716;28;20455;-55
2022/01/09 04:22:41;;;;;;;0.20;0.10;;;;;;;5.47;100.00;98118.34;4994071;28;20473;-54
2022/01/09 04:25:09;;;;;;;0.20;0.10;;;;;;;5.49;100.00;98124.44;4992442;28;20507;-55
2022/01/09 04:27:36;;;;;;;0.20;0.10;;;;;;;5.46;100.00;98132.44;4982268;28;20449;-55
2022/01/09 04:30:05;;;;;;;0.20;0.10;;;;;;;5.51;100.00;98137.53;4993349;28;20453;-54
2022/01/09 04:32:32;;;;;;;0.20;0.10;;;;;;;5.45;100.00;98143.91;4985956;28;20520;-55
2022/01/09 04:34:59;;;;;;;0.20;0.10;;;;;;;5.49;100.00;98149.94;4989217;28;20900;-55
2022/01/09 04:37:26;;;;;;;0.20;0.10;;;;;;;5.50;100.00;98154.28;4993867;28;20575;-54
2022/01/09 04:39:54;;;;;;;0.20;0.10;;;;;;;5.34;100.00;98157.56;4994158;28;20453;-55
2022/01/09 04:42:26;;;;;;;0.20;0.10;;;;;;;5.32;100.00;98164.66;4985832;28;20470;-55
2022/01/09 04:44:53;;;;;;;0.20;0.10;;;;;;;5.27;100.00;98197.38;4989860;28;20483;-55
2022/01/09 04:47:20;;;;;;;0.20;0.10;;;;;;;5.31;100.00;98180.50;4994052;28;20449;-54
2022/01/09 04:49:48;;;;;;;0.20;0.10;;;;;;;5.24;100.00;98192.25;4993838;28;20488;-54
2022/01/09 04:52:19;;;;;;;0.20;0.10;;;;;;;5.20;100.00;98201.16;4993854;28;20576;-54
2022/01/09 04:54:46;;;;;;;0.20;0.10;;;;;;;5.31;100.00;98204.22;4990492;28;20501;-54
2022/01/09 04:57:13;;;;;;;0.20;0.10;;;;;;;5.28;100.00;98217.53;4982481;28;20446;-54
2022/01/09 04:59:40;;;;;;;0.20;0.10;;;;;;;5.30;100.00;98224.44;4992091;28;20449;-54
2022/01/09 05:02:06;;;;;;;0.20;0.10;;;;;;;5.37;100.00;98225.06;4993796;28;20929;-55
2022/01/09 05:04:33;;;;;;;0.20;0.10;;;;;;;5.36;100.00;98233.88;4981251;28;20453;-55
2022/01/09 05:07:00;;;;;;;0.20;0.10;;;;;;;5.42;100.00;98238.03;4994053;28;20449;-54
2022/01/09 05:09:26;;;;;;;0.20;0.10;;;;;;;5.36;100.00;98244.41;4988877;28;20450;-55
2022/01/09 05:11:53;;;;;;;0.20;0.10;;;;;;;5.33;100.00;98252.41;4989276;28;20574;-55
2022/01/09 05:14:20;;;;;;;0.20;0.20;;;;;;;5.36;100.00;98247.06;4988385;28;21025;-54
2022/01/09 05:16:47;;;;;;;0.20;0.10;;;;;;;5.38;100.00;98258.38;4986457;28;20511;-54
2022/01/09 05:19:22;;;;;;;0.20;0.10;;;;;;;5.33;100.00;98265.59;4993438;28;20501;-54
2022/01/09 05:21:49;;;;;;;0.20;0.10;;;;;;;5.36;100.00;98265.50;4993019;28;20515;-52
2022/01/09 05:24:16;;;;;;;0.20;0.10;;;;;;;5.41;100.00;98275.84;4983574;28;20463;-54
2022/01/09 05:26:43;;;;;;;0.20;0.10;;;;;;;5.36;100.00;98281.31;4984628;28;20458;-54
2022/01/09 05:29:10;;;;;;;0.20;0.10;;;;;;;5.41;100.00;98283.75;4993250;28;20446;-54
2022/01/09 05:31:37;;;;;;;0.20;0.10;;;;;;;5.34;100.00;98305.06;4992891;28;20841;-55
2022/01/09 05:34:04;;;;;;;0.20;0.10;;;;;;;5.32;100.00;98295.50;4993087;28;20508;-54
2022/01/09 05:36:31;;;;;;;0.20;0.20;;;;;;;5.36;100.00;98299.75;4993035;28;20485;-53
2022/01/09 05:38:58;;;;;;;0.20;0.10;;;;;;;5.32;100.00;98306.88;4985510;28;20497;-54
2022/01/09 05:41:25;;;;;;;0.20;0.10;;;;;;;5.37;100.00;98317.25;4986326;28;20517;-54
2022/01/09 05:43:51;;;;;;;0.20;0.10;;;;;;;5.38;100.00;98332.16;4980918;28;20972;-54
2022/01/09 05:46:18;;;;;;;0.20;0.10;;;;;;;5.37;100.00;98319.03;4992502;28;20449;-55
2022/01/09 05:48:45;;;;;;;0.20;0.10;;;;;;;5.53;100.00;98328.91;4985516;28;20462;-55
2022/01/09 05:51:12;;;;;;;0.20;0.10;;;;;;;5.38;100.00;98324.25;4988026;28;20449;-54
2022/01/09 05:53:38;;;;;;;0.20;0.10;;;;;;;5.48;100.00;98336.13;4991950;28;20527;-54
2022/01/09 05:56:05;;;;;;;0.20;0.10;;;;;;;5.49;100.00;98340.50;4990887;28;20548;-55
2022/01/09 05:58:33;;;;;;;0.20;0.10;;;;;;;5.47;100.00;98351.97;4980763;28;20493;-54
2022/01/09 06:01:00;;;;;;;0.20;0.10;;;;;;;5.50;100.00;98343.97;4992537;28;20458;-55
2022/01/09 06:03:27;;;;;;;0.20;0.10;;;;;;;5.62;100.00;98354.03;4985299;28;20540;-55
2022/01/09 06:05:54;;;;;;;0.20;0.10;;;;;;;5.53;100.00;98354.41;4989870;28;20940;-54
2022/01/09 06:08:20;;;;;;;0.20;0.17;;;;;;;5.54;100.00;98362.22;4981259;28;20511;-55
2022/01/09 06:10:47;;;;;;;0.20;0.10;;;;;;;5.72;100.00;98362.41;4995804;28;21424;-55
2022/01/09 06:13:13;;;;;;;0.20;0.10;;;;;;;5.54;100.00;98369.28;4995756;28;20507;-55
2022/01/09 06:15:40;;;;;;;0.20;0.10;;;;;;;5.56;100.00;98378.84;4982411;28;20457;-55
2022/01/09 06:18:06;;;;;;;0.20;0.10;;;;;;;5.55;100.00;98386.81;5004371;28;20931;-55
2022/01/09 06:20:33;;;;;;;0.20;0.10;;;;;;;5.60;100.00;98396.25;4982548;28;20536;-54
2022/01/09 06:23:00;;;;;;;0.20;0.10;;;;;;;5.58;100.00;98395.44;4993743;28;20868;-55
2022/01/09 06:25:27;;;;;;;0.20;0.20;;;;;;;5.67;100.00;98398.66;4992119;28;20454;-55
2022/01/09 06:27:53;;;;;;;0.20;0.10;;;;;;;5.72;100.00;98405.44;4986021;28;21033;-55
2022/01/09 06:30:20;;;;;;;0.20;0.10;;;;;;;5.68;100.00;98405.63;4995509;28;20484;-55
2022/01/09 06:32:46;;;;;;;0.20;0.10;;;;;;;5.69;100.00;98416.13;4985214;28;20532;-55
2022/01/09 06:35:13;;;;;;;0.20;0.10;;;;;;;5.57;100.00;98427.13;4992413;28;20942;-54
2022/01/09 06:37:40;;;;;;;0.20;0.10;;;;;;;5.70;100.00;98424.88;4995532;28;20458;-55
2022/01/09 06:40:08;;;;;;;0.20;0.13;;;;;;;5.67;100.00;98443.47;4982262;28;20507;-55
2022/01/09 06:42:35;;;;;;;0.20;0.10;;;;;;;5.65;100.00;98447.00;4995354;28;20469;-55
2022/01/09 06:45:02;;;;;;;0.20;0.10;;;;;;;5.85;100.00;98455.91;4990790;28;20454;-54
2022/01/09 06:47:29;;;;;;;0.20;0.10;;;;;;;5.91;100.00;98464.50;4986456;28;20458;-54
2022/01/09 06:49:56;;;;;;;0.20;0.10;;;;;;;5.96;100.00;98461.66;4994797;28;20870;-54
2022/01/09 06:52:23;;;;;;;0.20;0.10;;;;;;;6.03;100.00;98464.91;4945430;28;1125958;-54
2022/01/09 06:54:52;;;;;;;0.20;0.10;;;;;;;5.91;100.00;98471.53;4995102;28;20211;-55
2022/01/09 06:57:19;;;;;;;0.20;0.10;;;;;;;5.85;100.00;98480.50;4984239;28;21054;-54
2022/01/09 06:59:45;;;;;;;0.20;0.10;;;;;;;5.66;100.00;98487.41;4987133;28;21035;-54
2022/01/09 07:02:12;;;;;;;0.20;0.10;;;;;;;5.63;100.00;98495.44;4996800;28;21024;-54
2022/01/09 07:04:38;;;;;;;0.20;0.20;;;;;;;5.51;100.00;98494.09;4989944;28;20861;-55
2022/01/09 07:07:05;;;;;;;0.20;0.10;;;;;;;5.47;100.00;98503.03;4989930;28;20459;-55
2022/01/09 07:09:32;;;;;;;0.20;0.10;;;;;;;5.46;100.00;98503.94;4996719;28;20946;-55
2022/01/09 07:11:58;;;;;;;0.20;0.10;;;;;;;5.50;100.00;98516.09;4999474;28;20469;-56
2022/01/09 07:14:25;;;;;;;0.20;0.10;;;;;;;5.46;100.00;98518.88;4989919;28;20503;-55
2022/01/09 07:16:52;;;;;;;0.20;0.10;;;;;;;5.41;100.00;98534.88;5003847;28;20507;-54
2022/01/09 07:19:18;;;;;;;0.20;0.10;;;;;;;5.53;100.00;98536.22;4990023;28;20831;-54
2022/01/09 07:21:45;;;;;;;0.20;0.10;;;;;;;5.49;100.00;98538.09;4989442;28;20523;-55
2022/01/09 07:24:12;;;;;;;0.20;0.10;;;;;;;5.57;100.00;98536.03;4985762;28;20462;-55
2022/01/09 07:26:38;;;;;;;0.20;0.10;;;;;;;5.48;100.00;98546.94;4987998;28;20445;-55
2022/01/09 07:29:05;;;;;;;0.20;0.10;;;;;;;5.38;100.00;98545.53;4984603;28;20451;-55
2022/01/09 07:31:31;;;;;;;0.20;0.10;;;;;;;5.35;100.00;98564.09;4989425;28;20484;-55
2022/01/09 07:33:58;;;;;;;0.20;0.10;;;;;;;5.37;100.00;98558.75;4995270;28;21017;-55
2022/01/09 07:36:24;;;;;;;0.20;0.10;;;;;;;5.24;100.00;98571.50;4996029;28;20453;-55
2022/01/09 07:38:51;;;;;;;0.20;0.10;;;;;;;5.37;100.00;98570.16;4988995;28;20493;-55
2022/01/09 07:41:21;;;;;;;0.20;0.10;;;;;;;5.31;100.00;98573.84;4990534;28;20476;-54
2022/01/09 07:43:48;;;;;;;0.20;0.10;;;;;;;5.35;100.00;98578.13;4994303;28;20445;-55
2022/01/09 07:46:15;;;;;;;0.20;0.10;;;;;;;5.46;100.00;98577.72;4992492;28;20916;-55
2022/01/09 07:48:41;;;;;;;0.20;0.10;;;;;;;5.46;100.00;98588.25;4984807;28;20446;-55
2022/01/09 07:51:08;;;;;;;0.20;0.10;;;;;;;5.48;100.00;98598.75;4987224;28;20450;-55
2022/01/09 07:53:35;;;;;;;0.20;0.10;;;;;;;5.42;100.00;98606.88;4988735;28;20919;-56
2022/01/09 07:56:01;;;;;;;0.20;0.10;;;;;;;5.44;100.00;98607.66;4985100;28;20492;-55
2022/01/09 07:58:28;;;;;;;2.93;2.73;;;;;;;5.51;100.00;98615.31;4994860;28;20493;-55
2022/01/09 08:00:54;;;;;;;0.20;0.10;;;;;;;5.51;100.00;98625.88;4981529;28;20964;-55
2022/01/09 08:03:21;;;;;;;0.20;0.20;;;;;;;5.51;100.00;98633.75;4984627;28;20508;-56
2022/01/09 08:05:48;;;;;;;0.20;0.10;;;;;;;5.56;100.00;98647.63;4994686;28;20485;-53
2022/01/09 08:08:15;;;;;;;0.20;0.10;;;;;;;5.60;100.00;98649.25;4984076;28;20466;-56
2022/01/09 08:10:41;;;;;;;0.20;0.10;;;;;;;5.64;100.00;98652.66;4986605;28;20528;-55
2022/01/09 08:13:08;;;;;;;0.20;0.10;;;;;;;5.63;100.00;98661.47;4985465;28;20521;-56
2022/01/09 08:15:35;;;;;;;0.20;0.10;;;;;;;5.67;100.00;98672.75;4984481;28;20438;-55
2022/01/09 08:18:01;;;;;;;0.20;0.10;;;;;;;5.63;100.00;98667.59;4989205;28;20998;-55
2022/01/09 08:20:28;;;;;;;0.20;0.10;;;;;;;5.62;100.00;98671.16;4984966;28;20439;-55
2022/01/09 08:22:55;;;;;;;0.20;0.10;;;;;;;5.74;100.00;98680.38;4983939;28;20522;-55
2022/01/09 08:25:21;;;;;;;0.20;0.20;;;;;;;5.71;100.00;98682.28;4987793;28;20441;-54
2022/01/09 08:27:48;;;;;;;0.20;0.10;;;;;;;5.76;100.00;98697.03;4988717;28;20457;-55
2022/01/09 08:30:18;;;;;;;0.20;0.10;;;;;;;5.77;100.00;98692.63;4988785;28;20510;-56
2022/01/09 08:32:45;;;;;;;0.20;0.10;;;;;;;5.81;100.00;98704.78;4984507;28;20492;-56
2022/01/09 08:35:12;;;;;;;0.20;0.10;;;;;;;5.79;100.00;98725.91;4986233;28;20461;-55
2022/01/09 08:37:44;;;;;;;0.20;0.10;;;;;;;5.91;100.00;98720.25;4983710;28;20508;-55
2022/01/09 08:40:13;;;;;;;0.20;0.10;;;;;;;5.95;100.00;98739.47;4987844;28;20864;-55
2022/01/09 08:42:43;;;;;;;0.20;0.10;;;;;;;5.91;100.00;98736.06;4981097;28;20549;-55
2022/01/09 08:45:11;;;;;;;0.20;0.20;;;;;;;5.82;100.00;98739.00;4987832;28;21028;-56
2022/01/09 08:47:38;;;;;;;0.20;0.10;;;;;;;5.98;100.00;98760.44;4994245;28;20454;-55
2022/01/09 08:50:06;;;;;;;0.20;0.10;;;;;;;5.94;100.00;98756.19;4993232;28;20815;-55
2022/01/09 08:52:33;;;;;;;0.20;0.10;;;;;;;6.02;100.00;98762.03;4987107;28;20537;-54
2022/01/09 08:55:00;;;;;;;0.20;0.10;;;;;;;5.95;100.00;98760.56;4990948;28;20520;-56
2022/01/09 08:57:27;;;;;;;0.20;0.10;;;;;;;5.92;100.00;98772.06;4994288;28;20881;-56
2022/01/09 08:59:53;;;;;;;0.20;0.20;;;;;;;6.02;100.00;98780.50;4994267;28;20485;-55
2022/01/09 09:02:20;;;;;;;0.20;0.10;;;;;;;6.03;100.00;98777.00;4992708;28;20500;-57
2022/01/09 09:04:47;;;;;;;0.20;0.10;;;;;;;6.01;100.00;98776.16;4987432;28;20459;-57
2022/01/09 09:07:18;;;;;;;0.20;0.10;;;;;;;6.01;100.00;98785.84;4992390;28;20516;-56
2022/01/09 09:09:45;;;;;;;0.20;0.20;;;;;;;6.03;100.00;98794.56;4981679;28;20453;-56
2022/01/09 09:12:12;;;;;;;0.20;0.10;;;;;;;6.16;100.00;98799.34;4988069;28;20609;-56
2022/01/09 09:14:38;;;;;;;0.20;0.10;;;;;;;6.18;100.00;98805.47;4982349;28;20437;-57
2022/01/09 09:17:05;;;;;;;0.20;0.10;;;;;;;6.06;100.00;98812.94;4988887;28;21004;-57
2022/01/09 09:19:32;;;;;;;0.20;0.10;;;;;;;6.11;100.00;98817.13;4992644;28;20489;-56
2022/01/09 09:21:59;;;;;;;0.20;0.10;;;;;;;5.88;100.00;98824.91;4984745;28;20477;-56
2022/01/09 09:24:25;;;;;;;0.20;0.10;;;;;;;5.83;100.00;98826.84;4984873;28;20512;-56
2022/01/09 09:26:52;;;;;;;0.20;0.10;;;;;;;5.91;100.00;98833.66;4979793;28;20459;-56
2022/01/09 09:29:19;;;;;;;0.20;0.20;;;;;;;6.07;100.00;98827.84;4983361;28;20450;-56
2022/01/09 09:31:46;;;;;;;0.20;0.20;;;;;;;6.04;100.00;98838.50;4982153;28;21024;-56
2022/01/09 09:34:12;;;;;;;0.20;0.13;;;;;;;5.94;100.00;98837.94;4985266;28;20449;-56
2022/01/09 09:36:39;;;;;;;0.20;0.10;;;;;;;6.12;100.00;98845.22;4991251;28;20445;-56
2022/01/09 09:39:08;;;;;;;0.20;0.10;;;;;;;6.34;100.00;98847.16;4991093;28;21007;-56
2022/01/09 09:41:34;;;;;;;0.20;0.10;;;;;;;6.18;100.00;98850.31;4988296;28;20531;-56
2022/01/09 09:44:02;;;;;;;0.20;0.10;;;;;;;6.24;100.00;98857.16;4990961;28;20467;-56
2022/01/09 09:46:29;;;;;;;0.20;0.10;;;;;;;6.23;100.00;98858.94;4990884;28;20458;-56
2022/01/09 09:48:55;;;;;;;0.20;0.10;;;;;;;6.11;100.00;98859.34;4989701;28;20454;-56
2022/01/09 09:51:24;;;;;;;0.20;0.20;;;;;;;6.14;100.00;98859.22;4988657;28;20481;-56
2022/01/09 09:53:52;;;;;;;0.20;0.20;;;;;;;6.14;100.00;98861.00;4989199;28;21045;-56
2022/01/09 09:56:19;;;;;;;0.20;0.20;;;;;;;6.17;100.00;98867.06;4987636;28;20919;-55
2022/01/09 09:58:47;;;;;;;0.20;0.10;;;;;;;6.32;100.00;98865.69;4989804;28;20528;-56
2022/01/09 10:01:28;;;;;;;0.20;0.10;;;;;;;6.32;100.00;98875.38;4987516;28;20494;-56
2022/01/09 10:04:05;;;;;;;0.20;0.13;;;;;;;6.36;100.00;98872.56;4989558;28;20484;-56
2022/01/09 10:06:38;;;;;;;0.20;0.20;;;;;;;6.39;100.00;98874.22;4988867;28;20887;-56
2022/01/09 10:09:09;;;;;;;0.20;0.20;;;;;;;6.42;100.00;98874.13;4984795;28;20446;-56
2022/01/09 10:11:49;;;;;;;0.20;0.20;;;;;;;6.29;100.00;98872.81;4991244;28;21034;-56
2022/01/09 10:14:18;;;;;;;0.20;0.10;;;;;;;6.33;100.00;98883.22;4983927;28;20524;-56
2022/01/09 10:17:12;;;;;;;0.20;0.10;;;;;;;6.41;100.00;98875.03;4999853;28;20853;-56
2022/01/09 10:19:50;;;;;;;0.20;0.10;;;;;;;6.39;100.00;98877.72;4980479;28;20486;-57
2022/01/09 10:22:33;;;;;;;0.20;0.20;;;;;;;6.32;100.00;98883.28;4987523;28;20535;-56
2022/01/09 10:25:15;;;;;;;0.20;0.10;;;;;;;6.43;100.00;98879.34;4988932;28;20445;-56
2022/01/09 10:27:41;;;;;;;0.20;0.10;;;;;;;6.40;99.18;98881.22;4977718;28;20455;-56
2022/01/09 10:30:08;;;;;;;0.20;0.20;;;;;;;6.55;98.69;98883.34;4987640;28;20486;-56
2022/01/09 10:32:35;;;;;;;0.20;0.10;;;;;;;6.43;98.46;98889.03;4992316;28;20477;-56
2022/01/09 10:35:11;;;;;;;0.20;0.10;;;;;;;6.41;99.35;98885.59;4979425;28;20461;-56
2022/01/09 10:37:39;;;;;;;0.20;0.10;;;;;;;6.44;99.49;98894.28;4992780;28;20460;-56
2022/01/09 10:40:08;;;;;;;0.20;0.10;;;;;;;6.56;99.59;98890.34;4981001;28;20536;-56
2022/01/09 10:42:35;;;;;;;0.20;0.20;;;;;;;6.59;98.19;98899.94;4982305;28;20521;-57
2022/01/09 10:45:24;;;;;;;0.20;0.20;;;;;;;6.68;97.73;98896.97;4989791;28;20449;-57
2022/01/09 10:47:55;;;;;;;0.20;0.20;;;;;;;6.67;97.05;98897.88;4979751;28;20446;-56
2022/01/09 10:50:27;;;;;;;0.20;0.20;;;;;;;6.68;96.71;98907.53;4985063;28;20446;-56
2022/01/09 10:53:25;;;;;;;0.20;0.20;;;;;;;6.81;96.51;98906.19;4985287;28;20481;-57
2022/01/09 10:56:12;;;;;;;0.20;0.20;;;;;;;6.93;96.39;98899.59;4977469;28;20462;-56
2022/01/09 10:58:44;;;;;;;0.20;0.10;;;;;;;6.91;95.66;98904.06;4980945;28;20478;-57
2022/01/09 11:01:28;;;;;;;0.20;0.10;;;;;;;6.99;97.28;98908.19;4989669;28;20454;-56
2022/01/09 11:04:04;;;;;;;0.20;0.10;;;;;;;7.05;96.11;98902.66;4988411;28;20452;-56
2022/01/09 11:06:36;;;;;;;0.20;0.20;;;;;;;7.16;96.27;98907.56;4979576;28;20446;-56
2022/01/09 11:09:05;;;;;;;0.20;0.13;;;;;;;7.13;96.25;98897.97;4990937;28;20589;-56
2022/01/09 11:11:36;;;;;;;0.20;0.20;;;;;;;7.10;97.13;98905.13;4995041;28;20473;-55
2022/01/09 11:14:10;;;;;;;0.20;0.20;;;;;;;7.01;95.44;98897.56;4989326;28;20466;-56
2022/01/09 11:16:41;;;;;;;0.20;0.20;;;;;;;7.12;95.57;98900.63;4988656;28;20512;-56
2022/01/09 11:19:13;;;;;;;0.20;0.17;;;;;;;7.29;95.13;98907.97;4982266;28;20493;-56
2022/01/09 11:21:48;;;;;;;0.20;0.10;;;;;;;7.36;95.43;98897.06;4994495;28;21014;-56
2022/01/09 11:24:32;;;;;;;0.20;0.10;;;;;;;7.51;96.92;98905.34;4980047;28;20801;-56
2022/01/09 11:27:23;;;;;;;0.20;0.10;;;;;;;7.49;93.52;98908.03;4990979;28;20446;-56
2022/01/09 11:29:53;;;;;;;0.30;0.20;;;;;;;7.52;93.51;98913.22;4987987;28;20461;-56
2022/01/09 11:32:27;;;;;;;0.30;0.30;;;;;;;7.33;93.20;98915.69;4994041;28;20473;-57
2022/01/09 11:35:12;;;;;;;0.20;0.20;;;;;;;7.30;94.21;98912.31;4994159;28;20544;-55
2022/01/09 11:38:08;;;;;;;0.60;0.57;;;;;;;7.26;93.07;98916.84;4985425;28;20454;-56
2022/01/09 11:40:35;;;;;;;0.20;0.10;;;;;;;7.29;93.25;98905.31;4985977;28;20532;-56